Terminal Aerodrome Forecast
Issued by NWS St Louis, MO

Home | Current Version | Previous Version | Text Only | Print | Product List | Glossary On
Versions: 1 2 3 4 5 6 7 8 9 10 11 12 13 14 15 16 17
842
FTUS43 KLSX 112322
TAFCOU
TAF
KCOU 112322Z 1200/1224 31018G28KT P6SM OVC040
     FM120400 33018G27KT P6SM OVC025
     FM120800 33017G24KT P6SM SCT035
     FM121000 32014KT P6SM SCT250
     FM122300 29008KT P6SM FEW150=

USA.gov is the U.S. government's official web portal to all federal, state and local government web resources and services.